Time;durP1;ratioP1;P1;durP2;ratioP2;P2;SDS_P1;SDS_P2;PMS_P1;PMS_P2;Temp;Humidity;BMP_temperature;BMP_pressure;BME280_temperature;BME280_humidity;BME280_pressure;Samples;Min_cycle;Max_cycle;Signal;HPM_P1;HPM_P2
2022/01/23 00:00:20;;;;;;;23.75;9.35;;;;;;;;;;5053900;28;20037;-78
2022/01/23 00:02:47;;;;;;;20.58;8.27;;;;;;;;;;5060573;28;20117;-79
2022/01/23 00:05:14;;;;;;;14.43;7.40;;;;;;;;;;5053175;28;20491;-78
2022/01/23 00:07:41;;;;;;;22.65;8.93;;;;;;;;;;5058015;28;20059;-78
2022/01/23 00:10:09;;;;;;;22.05;7.60;;;;;;;;;;5052727;28;20573;-78
2022/01/23 00:12:43;;;;;;;27.38;9.63;;;;;;;;;;5059093;28;20070;-79
2022/01/23 00:17:53;;;;;;;22.70;8.38;;;;;;;;;;5058512;28;20039;-78
2022/01/23 00:20:19;;;;;;;14.98;6.57;;;;;;;;;;5056120;28;20024;-79
2022/01/23 00:22:50;;;;;;;20.42;8.00;;;;;;;;;;5061532;28;20021;-78
2022/01/23 00:30:47;;;;;;;16.73;7.18;;;;;;;;;;5056251;28;20110;-78
2022/01/23 00:33:13;;;;;;;15.65;7.38;;;;;;;;;;5063313;28;20029;-78
2022/01/23 00:35:41;;;;;;;17.83;7.55;;;;;;;;;;5065207;28;20884;-79
2022/01/23 00:38:08;;;;;;;20.15;8.38;;;;;;;;;;5068815;28;20024;-79
2022/01/23 00:40:35;;;;;;;17.45;7.13;;;;;;;;;;5064290;28;20066;-78
2022/01/23 00:43:06;;;;;;;22.70;9.90;;;;;;;;;;5064756;28;20374;-78
2022/01/23 00:45:34;;;;;;;20.52;7.55;;;;;;;;;;5064717;28;20029;-78
2022/01/23 00:48:04;;;;;;;19.55;8.55;;;;;;;;;;5065634;28;20029;-78
2022/01/23 00:50:31;;;;;;;18.30;7.82;;;;;;;;;;5062811;28;20128;-79
2022/01/23 00:52:57;;;;;;;20.33;8.40;;;;;;;;;;5062398;28;20033;-78
2022/01/23 00:55:23;;;;;;;19.30;8.05;;;;;;;;;;5063807;28;20057;-78
2022/01/23 00:57:49;;;;;;;20.67;8.25;;;;;;;;;;5070691;28;20025;-78
2022/01/23 01:00:15;;;;;;;14.35;7.18;;;;;;;;;;5050043;28;20033;-77
2022/01/23 01:02:41;;;;;;;18.90;8.23;;;;;;;;;;5052358;28;20021;-79
2022/01/23 01:05:08;;;;;;;16.13;7.18;;;;;;;;;;5052706;28;20054;-79
2022/01/23 01:07:34;;;;;;;21.42;9.35;;;;;;;;;;5046440;28;20094;-79
2022/01/23 01:10:06;;;;;;;20.88;8.90;;;;;;;;;;5058318;28;20579;-79
2022/01/23 01:12:42;;;;;;;19.35;6.90;;;;;;;;;;5053345;28;20033;-79
2022/01/23 01:31:26;;;;;;;19.67;7.70;;;;;;;;;;5059058;28;20055;-78
2022/01/23 01:34:07;;;;;;;20.90;8.00;;;;;;;;;;5055562;28;20116;-78
2022/01/23 01:39:05;;;;;;;22.65;8.55;;;;;;;;;;5060931;28;20051;-78
2022/01/23 01:41:31;;;;;;;23.08;9.43;;;;;;;;;;5055937;28;20096;-78
2022/01/23 01:43:59;;;;;;;17.55;8.73;;;;;;;;;;5060005;28;20048;-78
2022/01/23 01:46:25;;;;;;;15.10;7.13;;;;;;;;;;5053806;28;20051;-78
2022/01/23 01:48:51;;;;;;;17.48;8.88;;;;;;;;;;5056822;28;20054;-78
2022/01/23 01:51:18;;;;;;;18.92;8.05;;;;;;;;;;5056031;28;20082;-78
2022/01/23 01:53:52;;;;;;;17.10;7.22;;;;;;;;;;5062637;28;21601;-78
2022/01/23 01:56:18;;;;;;;19.63;7.32;;;;;;;;;;5057385;28;20038;-78
2022/01/23 02:02:43;;;;;;;14.02;6.47;;;;;;;;;;5053111;28;20032;-79
2022/01/23 02:09:30;;;;;;;23.35;9.30;;;;;;;;;;5059690;28;20051;-78
2022/01/23 02:25:28;;;;;;;19.58;6.85;;;;;;;;;;5064549;28;22058;-78
2022/01/23 02:55:23;;;;;;;12.50;5.95;;;;;;;;;;5060617;28;20046;-78
2022/01/23 02:57:55;;;;;;;18.30;7.03;;;;;;;;;;5056064;28;20036;-78
2022/01/23 03:00:24;;;;;;;15.63;6.03;;;;;;;;;;5071870;28;20047;-78
2022/01/23 03:02:54;;;;;;;14.45;6.97;;;;;;;;;;5054050;28;20688;-78
2022/01/23 03:05:34;;;;;;;16.77;6.72;;;;;;;;;;5056294;28;20043;-78
2022/01/23 03:10:36;;;;;;;10.82;5.63;;;;;;;;;;5048967;28;20098;-78
2022/01/23 03:13:39;;;;;;;18.80;7.68;;;;;;;;;;5059582;28;20033;-78
2022/01/23 03:26:32;;;;;;;17.85;6.85;;;;;;;;;;5060094;28;20058;-78
2022/01/23 03:31:43;;;;;;;16.35;6.03;;;;;;;;;;5058756;28;20071;-78
2022/01/23 03:34:10;;;;;;;18.17;6.55;;;;;;;;;;5050043;28;20021;-78
2022/01/23 03:36:37;;;;;;;19.98;8.27;;;;;;;;;;5055419;28;20032;-78
2022/01/23 03:39:09;;;;;;;20.83;6.80;;;;;;;;;;5052090;28;20025;-78
2022/01/23 03:41:39;;;;;;;14.45;6.78;;;;;;;;;;5054211;28;20039;-78
2022/01/23 03:44:08;;;;;;;14.13;6.43;;;;;;;;;;5052681;28;20035;-78
2022/01/23 03:49:31;;;;;;;22.00;8.13;;;;;;;;;;5050259;28;20340;-78
2022/01/23 03:52:02;;;;;;;21.98;6.15;;;;;;;;;;5053744;28;20048;-78
2022/01/23 03:54:28;;;;;;;13.50;5.68;;;;;;;;;;5056239;28;20036;-78
2022/01/23 03:56:55;;;;;;;13.40;5.68;;;;;;;;;;5054892;28;20024;-78
2022/01/23 03:59:21;;;;;;;14.02;6.88;;;;;;;;;;5050851;28;20426;-78
2022/01/23 04:01:47;;;;;;;16.05;6.50;;;;;;;;;;5045760;28;20132;-78
2022/01/23 04:04:28;;;;;;;16.00;6.35;;;;;;;;;;5055323;28;20039;-78
2022/01/23 04:06:54;;;;;;;18.65;6.95;;;;;;;;;;5038091;28;20238;-78
2022/01/23 04:09:20;;;;;;;16.48;5.47;;;;;;;;;;5054420;28;20032;-78
2022/01/23 04:11:47;;;;;;;13.43;6.05;;;;;;;;;;5062155;28;20036;-78
2022/01/23 04:14:15;;;;;;;14.55;6.53;;;;;;;;;;5060439;28;20036;-78
2022/01/23 04:45:06;;;;;;;18.77;6.55;;;;;;;;;;5053529;28;20075;-78
2022/01/23 04:47:21;;;;;;;11.07;4.57;;;;;;;;;;5056100;28;20919;-78
2022/01/23 05:00:34;;;;;;;20.60;5.97;;;;;;;;;;5057860;28;20121;-78
2022/01/23 05:05:48;;;;;;;17.55;6.10;;;;;;;;;;5055424;28;20039;-78
2022/01/23 05:08:18;;;;;;;18.58;6.38;;;;;;;;;;5050800;28;20028;-78
2022/01/23 05:10:45;;;;;;;16.52;5.53;;;;;;;;;;5060584;28;21620;-78
2022/01/23 05:13:11;;;;;;;18.98;7.45;;;;;;;;;;5049657;28;20059;-78
2022/01/23 05:15:37;;;;;;;15.90;6.32;;;;;;;;;;5053196;28;20721;-78
2022/01/23 05:18:03;;;;;;;15.55;5.78;;;;;;;;;;5053570;28;20108;-78
2022/01/23 05:20:30;;;;;;;19.15;7.22;;;;;;;;;;5052981;28;20033;-78
2022/01/23 05:23:03;;;;;;;27.73;7.55;;;;;;;;;;5056030;28;20025;-78
2022/01/23 05:25:31;;;;;;;15.85;5.60;;;;;;;;;;5055171;28;20059;-78
2022/01/23 05:27:57;;;;;;;16.92;6.47;;;;;;;;;;5053007;28;20033;-77
2022/01/23 05:30:24;;;;;;;19.60;6.97;;;;;;;;;;5050747;28;21211;-77
2022/01/23 05:32:50;;;;;;;18.08;6.07;;;;;;;;;;5052706;28;20031;-78
2022/01/23 05:35:18;;;;;;;15.82;7.10;;;;;;;;;;5056207;28;20024;-78
2022/01/23 05:37:44;;;;;;;20.52;6.55;;;;;;;;;;5051478;28;20111;-78
2022/01/23 05:40:13;;;;;;;16.00;6.40;;;;;;;;;;5056231;28;20055;-78
2022/01/23 05:42:40;;;;;;;14.25;6.85;;;;;;;;;;5049288;28;20075;-78
2022/01/23 05:45:08;;;;;;;13.52;5.30;;;;;;;;;;5052484;28;20130;-78
2022/01/23 05:47:34;;;;;;;18.45;8.45;;;;;;;;;;5057050;28;20056;-78
2022/01/23 05:50:00;;;;;;;18.38;6.85;;;;;;;;;;5052705;28;20071;-78
2022/01/23 05:52:26;;;;;;;14.20;6.28;;;;;;;;;;5055206;28;20035;-78
2022/01/23 05:54:52;;;;;;;24.75;7.15;;;;;;;;;;5054226;28;20025;-78
2022/01/23 05:57:18;;;;;;;12.95;4.95;;;;;;;;;;5061533;28;20078;-78
2022/01/23 05:59:44;;;;;;;23.45;7.72;;;;;;;;;;5056340;28;20035;-77
2022/01/23 06:02:10;;;;;;;18.48;6.25;;;;;;;;;;5062495;28;20138;-78
2022/01/23 06:04:35;;;;;;;17.38;6.63;;;;;;;;;;5057574;28;20027;-78
2022/01/23 06:07:03;;;;;;;18.52;6.93;;;;;;;;;;5054935;28;20028;-78
2022/01/23 06:09:29;;;;;;;20.02;5.95;;;;;;;;;;5048385;28;20036;-78
2022/01/23 06:11:55;;;;;;;15.95;6.30;;;;;;;;;;5055682;28;20659;-78
2022/01/23 06:14:21;;;;;;;14.88;5.95;;;;;;;;;;5044845;28;20043;-78
2022/01/23 06:16:47;;;;;;;15.30;6.40;;;;;;;;;;5053065;28;20103;-78
2022/01/23 06:19:13;;;;;;;16.77;6.63;;;;;;;;;;5053125;28;20029;-78
2022/01/23 06:21:39;;;;;;;15.95;5.45;;;;;;;;;;5054111;28;20516;-78
2022/01/23 06:24:08;;;;;;;15.93;6.72;;;;;;;;;;5050064;28;20036;-78
2022/01/23 06:26:44;;;;;;;19.08;6.57;;;;;;;;;;5057388;28;21087;-78
2022/01/23 06:29:11;;;;;;;18.20;6.55;;;;;;;;;;5050430;28;20052;-78
2022/01/23 06:31:38;;;;;;;19.65;7.53;;;;;;;;;;5049398;28;20082;-78
2022/01/23 06:34:05;;;;;;;17.90;6.88;;;;;;;;;;5047937;28;20028;-78
2022/01/23 06:36:31;;;;;;;14.35;5.88;;;;;;;;;;5052254;28;20059;-78
2022/01/23 06:38:57;;;;;;;24.85;5.78;;;;;;;;;;5045223;28;20603;-77
2022/01/23 06:41:23;;;;;;;14.35;5.55;;;;;;;;;;5053180;28;20145;-78
2022/01/23 06:43:58;;;;;;;21.92;6.40;;;;;;;;;;5048110;28;20705;-79
2022/01/23 06:46:24;;;;;;;15.82;5.30;;;;;;;;;;5055002;28;20033;-79
2022/01/23 06:48:50;;;;;;;16.20;5.55;;;;;;;;;;5061490;28;21283;-79
2022/01/23 06:51:17;;;;;;;21.70;7.00;;;;;;;;;;5057684;28;20056;-79
2022/01/23 06:53:43;;;;;;;15.82;6.18;;;;;;;;;;5058293;28;20039;-79
2022/01/23 06:56:09;;;;;;;17.88;6.68;;;;;;;;;;5059787;28;20139;-79
2022/01/23 06:58:34;;;;;;;12.32;5.15;;;;;;;;;;5061047;28;20037;-79
2022/01/23 07:01:00;;;;;;;17.75;6.40;;;;;;;;;;5064609;28;20093;-79
2022/01/23 07:03:26;;;;;;;19.88;6.50;;;;;;;;;;5059957;28;20597;-79
2022/01/23 07:05:52;;;;;;;18.23;6.03;;;;;;;;;;5063434;28;20104;-80
2022/01/23 07:08:18;;;;;;;19.38;6.18;;;;;;;;;;5063289;28;20041;-79
2022/01/23 07:10:45;;;;;;;16.83;7.28;;;;;;;;;;5063841;28;20032;-80
2022/01/23 07:13:10;;;;;;;23.55;8.98;;;;;;;;;;5061755;28;20043;-79
2022/01/23 07:15:36;;;;;;;13.43;4.57;;;;;;;;;;5063303;28;20024;-80
2022/01/23 07:18:02;;;;;;;23.60;7.25;;;;;;;;;;5056269;28;20060;-78
2022/01/23 07:20:28;;;;;;;24.88;8.05;;;;;;;;;;5049759;28;20036;-78
2022/01/23 07:22:55;;;;;;;16.75;5.78;;;;;;;;;;5049198;28;20036;-78
2022/01/23 07:25:21;;;;;;;18.48;6.78;;;;;;;;;;5058378;28;20033;-78
2022/01/23 07:27:51;;;;;;;13.48;7.20;;;;;;;;;;5051603;28;20096;-78
2022/01/23 07:32:49;;;;;;;12.48;6.20;;;;;;;;;;5048280;28;20043;-78
2022/01/23 07:35:15;;;;;;;19.80;7.72;;;;;;;;;;5049370;28;20029;-78
2022/01/23 07:37:41;;;;;;;21.50;7.53;;;;;;;;;;5050195;28;20029;-78
2022/01/23 07:40:08;;;;;;;16.35;6.22;;;;;;;;;;5053256;28;22152;-78
2022/01/23 07:42:34;;;;;;;19.40;5.57;;;;;;;;;;5045376;28;20119;-76
2022/01/23 07:45:01;;;;;;;15.38;6.18;;;;;;;;;;5047929;28;20021;-78
2022/01/23 07:47:27;;;;;;;24.88;7.53;;;;;;;;;;5055656;28;20044;-78
2022/01/23 07:49:52;;;;;;;22.13;6.85;;;;;;;;;;5055200;28;20021;-78
2022/01/23 07:52:18;;;;;;;16.50;5.78;;;;;;;;;;5055106;28;20032;-78
2022/01/23 07:54:45;;;;;;;22.92;8.07;;;;;;;;;;5043271;28;20029;-77
2022/01/23 07:57:11;;;;;;;22.20;6.25;;;;;;;;;;5037460;28;20110;-78
2022/01/23 07:59:37;;;;;;;21.23;8.55;;;;;;;;;;5027480;28;20025;-79
2022/01/23 08:02:03;;;;;;;19.85;6.70;;;;;;;;;;5029263;28;20047;-82
2022/01/23 08:04:29;;;;;;;22.90;7.00;;;;;;;;;;5029209;28;22805;-80
2022/01/23 08:07:09;;;;;;;19.40;5.78;;;;;;;;;;5039639;28;20540;-79
2022/01/23 08:09:35;;;;;;;28.73;8.25;;;;;;;;;;5041655;28;20135;-79
2022/01/23 08:12:01;;;;;;;19.92;7.28;;;;;;;;;;5037148;28;20037;-79
2022/01/23 08:14:27;;;;;;;26.67;8.13;;;;;;;;;;5042803;28;20037;-78
2022/01/23 08:16:53;;;;;;;35.58;9.00;;;;;;;;;;5038503;28;20032;-79
2022/01/23 08:19:19;;;;;;;21.83;8.13;;;;;;;;;;5029157;28;20153;-79
2022/01/23 08:21:45;;;;;;;30.05;7.22;;;;;;;;;;5039430;28;20048;-78
2022/01/23 08:24:11;;;;;;;19.33;5.90;;;;;;;;;;5035115;28;20029;-78
2022/01/23 08:26:38;;;;;;;17.90;7.25;;;;;;;;;;5040394;28;20035;-78
2022/01/23 08:29:05;;;;;;;23.50;6.75;;;;;;;;;;5025696;28;20041;-78
2022/01/23 08:31:31;;;;;;;22.02;8.45;;;;;;;;;;5036821;28;20238;-78
2022/01/23 08:33:57;;;;;;;24.85;6.78;;;;;;;;;;5038422;28;20025;-79
2022/01/23 08:36:23;;;;;;;24.55;7.40;;;;;;;;;;5039102;28;20032;-79
2022/01/23 08:38:49;;;;;;;17.65;5.70;;;;;;;;;;5031454;28;20045;-79
2022/01/23 08:43:50;;;;;;;24.40;7.45;;;;;;;;;;5040073;28;20059;-78
2022/01/23 08:46:16;;;;;;;25.73;7.32;;;;;;;;;;5037766;28;20040;-79
2022/01/23 08:48:43;;;;;;;25.17;8.70;;;;;;;;;;5033923;28;20052;-78
2022/01/23 08:51:10;;;;;;;18.27;7.07;;;;;;;;;;5035359;28;20037;-78
2022/01/23 08:53:36;;;;;;;15.23;6.25;;;;;;;;;;5035891;28;20029;-80
2022/01/23 08:56:02;;;;;;;27.13;6.85;;;;;;;;;;5028687;28;20061;-76
2022/01/23 08:58:28;;;;;;;18.27;7.53;;;;;;;;;;5040021;28;20021;-79
2022/01/23 09:00:54;;;;;;;19.55;6.63;;;;;;;;;;5029017;28;20033;-78
2022/01/23 09:03:20;;;;;;;23.58;6.60;;;;;;;;;;5033096;28;20480;-79
2022/01/23 09:05:46;;;;;;;18.02;7.40;;;;;;;;;;5037890;28;20028;-79
2022/01/23 09:08:12;;;;;;;23.95;7.47;;;;;;;;;;5029801;28;20033;-78
2022/01/23 09:10:51;;;;;;;20.42;7.43;;;;;;;;;;5026584;28;20252;-78
2022/01/23 09:13:51;;;;;;;18.80;6.88;;;;;;;;;;5033217;28;20412;-80
2022/01/23 09:16:17;;;;;;;20.20;7.22;;;;;;;;;;5028235;28;20036;-77
2022/01/23 09:18:43;;;;;;;19.77;5.70;;;;;;;;;;5033195;28;20045;-77
2022/01/23 09:21:09;;;;;;;15.45;6.45;;;;;;;;;;5034140;28;20064;-77
2022/01/23 09:23:35;;;;;;;22.63;7.93;;;;;;;;;;5032640;28;20053;-78
2022/01/23 09:26:08;;;;;;;17.63;6.35;;;;;;;;;;5036827;28;20382;-77
2022/01/23 09:28:34;;;;;;;26.35;9.05;;;;;;;;;;5046923;28;20041;-77
2022/01/23 09:31:01;;;;;;;19.75;6.93;;;;;;;;;;5039253;28;20170;-77
2022/01/23 09:33:27;;;;;;;16.95;6.97;;;;;;;;;;5037013;28;20471;-77
2022/01/23 09:35:53;;;;;;;18.95;7.07;;;;;;;;;;5037222;28;20036;-77
2022/01/23 09:38:20;;;;;;;14.85;6.07;;;;;;;;;;5034314;28;20511;-77
2022/01/23 09:40:46;;;;;;;18.92;5.85;;;;;;;;;;5033301;28;20040;-77
2022/01/23 09:43:15;;;;;;;20.33;6.32;;;;;;;;;;5028319;28;20047;-76
2022/01/23 09:45:44;;;;;;;18.95;7.78;;;;;;;;;;5039092;28;20025;-78
2022/01/23 09:48:10;;;;;;;17.88;6.20;;;;;;;;;;5043812;28;20063;-78
2022/01/23 09:50:36;;;;;;;22.55;7.18;;;;;;;;;;5041329;28;20366;-78
2022/01/23 09:53:02;;;;;;;16.45;6.05;;;;;;;;;;5043412;28;20040;-78
2022/01/23 09:55:29;;;;;;;21.17;6.85;;;;;;;;;;5045846;28;20136;-78
2022/01/23 09:57:55;;;;;;;20.38;7.20;;;;;;;;;;5040529;28;20615;-80
2022/01/23 10:00:24;;;;;;;21.52;7.75;;;;;;;;;;5042051;28;20048;-80
2022/01/23 10:02:50;;;;;;;19.60;7.25;;;;;;;;;;5042740;28;20085;-80
2022/01/23 10:05:16;;;;;;;15.70;5.72;;;;;;;;;;5039149;28;20242;-77
2022/01/23 10:07:43;;;;;;;18.58;6.72;;;;;;;;;;5040561;28;20033;-78
2022/01/23 10:10:12;;;;;;;16.27;6.65;;;;;;;;;;5040383;28;20124;-78
2022/01/23 10:12:38;;;;;;;14.55;6.10;;;;;;;;;;5041498;28;20098;-79
2022/01/23 10:15:05;;;;;;;22.33;7.35;;;;;;;;;;5038849;28;20051;-78
2022/01/23 10:17:31;;;;;;;13.13;5.82;;;;;;;;;;5042130;28;20033;-78
2022/01/23 10:19:58;;;;;;;18.40;4.93;;;;;;;;;;5034720;28;20040;-77
2022/01/23 10:22:25;;;;;;;11.57;4.05;;;;;;;;;;5038592;28;20049;-79
2022/01/23 10:24:51;;;;;;;13.25;4.60;;;;;;;;;;5042265;28;20882;-80
2022/01/23 10:27:17;;;;;;;16.63;5.72;;;;;;;;;;5035076;28;20183;-80
2022/01/23 10:29:46;;;;;;;16.33;6.57;;;;;;;;;;5042231;28;20055;-80
2022/01/23 10:32:14;;;;;;;14.70;5.68;;;;;;;;;;5041936;28;20052;-80
2022/01/23 10:34:43;;;;;;;16.52;5.63;;;;;;;;;;5045263;28;20025;-80
2022/01/23 10:37:09;;;;;;;13.82;6.30;;;;;;;;;;5032218;28;20044;-80
2022/01/23 10:39:43;;;;;;;16.83;6.13;;;;;;;;;;5029119;28;20033;-80
2022/01/23 10:42:29;;;;;;;13.70;5.78;;;;;;;;;;5036488;28;20045;-79
2022/01/23 10:47:52;;;;;;;14.07;5.35;;;;;;;;;;5032938;28;21969;-83
2022/01/23 10:50:21;;;;;;;17.60;6.63;;;;;;;;;;5042651;28;20661;-79
2022/01/23 10:52:49;;;;;;;15.43;5.55;;;;;;;;;;5039081;28;20033;-79
2022/01/23 10:55:21;;;;;;;13.77;5.15;;;;;;;;;;5035725;28;20033;-79
2022/01/23 10:57:48;;;;;;;18.13;5.80;;;;;;;;;;5042515;28;20036;-80
2022/01/23 11:00:31;;;;;;;13.00;5.28;;;;;;;;;;5030263;28;20094;-80
2022/01/23 11:02:59;;;;;;;10.70;4.10;;;;;;;;;;5039014;28;20084;-79
2022/01/23 11:05:35;;;;;;;11.52;3.50;;;;;;;;;;5030677;28;20089;-79
2022/01/23 11:08:01;;;;;;;11.07;4.40;;;;;;;;;;5036322;28;20569;-79
2022/01/23 11:10:28;;;;;;;12.85;4.90;;;;;;;;;;5033771;28;20580;-80
2022/01/23 11:18:10;;;;;;;8.48;3.95;;;;;;;;;;5042394;28;20091;-78
2022/01/23 11:20:43;;;;;;;6.57;3.70;;;;;;;;;;5035795;28;20035;-79
2022/01/23 11:23:30;;;;;;;11.32;4.70;;;;;;;;;;5027378;28;20045;-79
2022/01/23 11:25:56;;;;;;;15.80;4.35;;;;;;;;;;5035001;28;20033;-80
2022/01/23 11:28:39;;;;;;;12.45;4.28;;;;;;;;;;5041075;28;20356;-79
2022/01/23 11:31:07;;;;;;;13.30;4.82;;;;;;;;;;5037344;28;20048;-80
2022/01/23 11:33:33;;;;;;;10.05;4.35;;;;;;;;;;5039874;28;20128;-80
2022/01/23 11:35:59;;;;;;;9.18;4.00;;;;;;;;;;5038841;28;20029;-79
2022/01/23 11:38:25;;;;;;;12.52;4.30;;;;;;;;;;5034121;28;20462;-79
2022/01/23 11:54:45;;;;;;;7.20;2.85;;;;;;;;;;5041247;28;20104;-79
2022/01/23 11:57:30;;;;;;;5.80;3.17;;;;;;;;;;5044562;28;20116;-79
2022/01/23 11:59:58;;;;;;;9.55;3.35;;;;;;;;;;5042354;28;20025;-76
2022/01/23 12:02:34;;;;;;;9.50;3.58;;;;;;;;;;5028860;28;20095;-78
2022/01/23 12:05:17;;;;;;;10.48;3.20;;;;;;;;;;5042387;28;20042;-79
2022/01/23 12:07:44;;;;;;;7.13;3.30;;;;;;;;;;5044674;28;20048;-80
2022/01/23 12:10:10;;;;;;;10.27;3.95;;;;;;;;;;5035311;28;20030;-80
2022/01/23 12:12:46;;;;;;;9.55;4.25;;;;;;;;;;5039994;28;20093;-79
2022/01/23 12:18:14;;;;;;;6.18;3.08;;;;;;;;;;5030672;28;20131;-79
2022/01/23 12:20:40;;;;;;;7.72;3.72;;;;;;;;;;5038916;28;20507;-79
2022/01/23 12:23:06;;;;;;;9.48;4.28;;;;;;;;;;5032001;28;20041;-79
2022/01/23 12:25:43;;;;;;;11.40;3.95;;;;;;;;;;5037153;28;20146;-80
2022/01/23 12:28:20;;;;;;;9.85;4.10;;;;;;;;;;5035148;28;20095;-80
2022/01/23 12:30:47;;;;;;;7.88;3.15;;;;;;;;;;5035498;28;20067;-80
2022/01/23 12:33:16;;;;;;;13.80;2.95;;;;;;;;;;5039312;28;20116;-80
2022/01/23 12:35:43;;;;;;;7.65;2.90;;;;;;;;;;5037435;28;20128;-79
2022/01/23 12:38:11;;;;;;;8.25;3.70;;;;;;;;;;5044370;28;20055;-79
2022/01/23 12:40:37;;;;;;;7.55;3.25;;;;;;;;;;5036212;28;20052;-79
2022/01/23 12:43:06;;;;;;;10.07;3.55;;;;;;;;;;5021432;28;20155;-80
2022/01/23 12:45:45;;;;;;;6.25;2.58;;;;;;;;;;5029075;28;20032;-79
2022/01/23 12:48:27;;;;;;;6.50;2.88;;;;;;;;;;5029925;28;20350;-79
2022/01/23 12:51:00;;;;;;;5.32;2.80;;;;;;;;;;5034210;28;20045;-77
2022/01/23 12:53:26;;;;;;;;;;;;;;;;;;5037245;28;21969;-78
2022/01/23 12:56:01;;;;;;;7.25;2.88;;;;;;;;;;5035958;28;19916;-79
2022/01/23 12:58:28;;;;;;;8.00;2.67;;;;;;;;;;5034221;28;20086;-78
2022/01/23 13:00:54;;;;;;;8.80;3.25;;;;;;;;;;5036291;28;20071;-77
2022/01/23 13:03:24;;;;;;;4.95;2.35;;;;;;;;;;5034745;28;20045;-78
2022/01/23 13:05:50;;;;;;;7.13;2.35;;;;;;;;;;5035595;28;20032;-79
2022/01/23 13:08:29;;;;;;;4.82;2.88;;;;;;;;;;5038915;28;21500;-78
2022/01/23 13:13:49;;;;;;;8.00;3.08;;;;;;;;;;5031831;28;20138;-78
2022/01/23 13:16:27;;;;;;;6.90;2.92;;;;;;;;;;5032375;28;20047;-78
2022/01/23 13:27:43;;;;;;;8.82;3.65;;;;;;;;;;5043658;28;20532;-78
2022/01/23 13:30:14;;;;;;;9.25;3.65;;;;;;;;;;5032842;28;20429;-78
2022/01/23 13:32:46;;;;;;;9.77;3.08;;;;;;;;;;5026767;28;20420;-78
2022/01/23 13:35:15;;;;;;;8.40;3.08;;;;;;;;;;5032313;28;20037;-78
2022/01/23 13:37:43;;;;;;;5.47;2.75;;;;;;;;;;5024715;28;20594;-78
2022/01/23 13:40:09;;;;;;;6.35;2.63;;;;;;;;;;5031095;28;20025;-79
2022/01/23 13:59:48;;;;;;;7.38;2.78;;;;;;;;;;5032364;28;20053;-79
2022/01/23 14:02:20;;;;;;;9.13;4.53;;;;;;;;;;5028833;28;20120;-79
2022/01/23 14:04:49;;;;;;;7.53;3.28;;;;;;;;;;5025566;28;20059;-78
2022/01/23 14:07:22;;;;;;;8.15;3.30;;;;;;;;;;5030675;28;21467;-78
2022/01/23 14:09:48;;;;;;;7.75;2.78;;;;;;;;;;5034749;28;20041;-78
2022/01/23 14:12:16;;;;;;;7.13;3.42;;;;;;;;;;5029135;28;20039;-78
2022/01/23 14:14:49;;;;;;;11.15;4.05;;;;;;;;;;5028904;28;20057;-78
2022/01/23 14:17:15;;;;;;;;;;;;;;;;;;5027213;28;20037;-78
2022/01/23 14:19:42;;;;;;;7.60;3.03;;;;;;;;;;5027605;28;19915;-78
2022/01/23 14:22:08;;;;;;;8.73;3.28;;;;;;;;;;5022569;28;20033;-79
2022/01/23 14:24:37;;;;;;;7.43;3.58;;;;;;;;;;5033758;28;20556;-81
2022/01/23 14:27:07;;;;;;;11.13;3.33;;;;;;;;;;5032738;28;20123;-78
2022/01/23 14:29:53;;;;;;;7.15;2.15;;;;;;;;;;5016632;28;21816;-80
2022/01/23 14:32:29;;;;;;;9.32;2.33;;;;;;;;;;5023254;28;20025;-80
2022/01/23 14:35:16;;;;;;;8.40;2.88;;;;;;;;;;5032677;28;20037;-78
2022/01/23 14:37:43;;;;;;;9.82;2.83;;;;;;;;;;5032705;28;20103;-78
2022/01/23 14:40:29;;;;;;;7.88;3.45;;;;;;;;;;5032972;28;20029;-78
2022/01/23 14:43:04;;;;;;;10.18;3.83;;;;;;;;;;5033322;28;20052;-78
2022/01/23 14:45:31;;;;;;;7.10;2.88;;;;;;;;;;5030284;28;20028;-78
2022/01/23 14:47:57;;;;;;;8.93;4.53;;;;;;;;;;5028776;28;20029;-78
2022/01/23 14:50:25;;;;;;;5.78;2.63;;;;;;;;;;5031399;28;20036;-78
2022/01/23 14:52:51;;;;;;;9.20;3.53;;;;;;;;;;5036563;28;20044;-79
2022/01/23 14:55:17;;;;;;;7.55;3.00;;;;;;;;;;5032244;28;20049;-78
2022/01/23 14:57:45;;;;;;;6.25;2.97;;;;;;;;;;5032988;28;20039;-78
2022/01/23 15:00:12;;;;;;;4.70;2.38;;;;;;;;;;5032163;28;20499;-77
2022/01/23 15:02:40;;;;;;;6.22;2.80;;;;;;;;;;5034818;28;20041;-78
2022/01/23 15:05:07;;;;;;;7.95;3.15;;;;;;;;;;5034539;28;20037;-78
2022/01/23 15:07:37;;;;;;;9.60;4.60;;;;;;;;;;5038701;28;20029;-78
2022/01/23 15:10:04;;;;;;;8.82;3.20;;;;;;;;;;5030452;28;20083;-78
2022/01/23 15:12:30;;;;;;;6.47;2.45;;;;;;;;;;5037863;28;20033;-79
2022/01/23 15:14:56;;;;;;;4.47;1.80;;;;;;;;;;5035950;28;20039;-80
2022/01/23 15:17:22;;;;;;;13.13;2.97;;;;;;;;;;5036006;28;20035;-80
2022/01/23 15:19:48;;;;;;;5.97;1.77;;;;;;;;;;5039060;28;20033;-80
2022/01/23 15:22:14;;;;;;;8.27;3.03;;;;;;;;;;5036204;28;20045;-79
2022/01/23 15:24:40;;;;;;;4.03;2.03;;;;;;;;;;5036212;28;20028;-79
2022/01/23 15:27:06;;;;;;;8.38;2.35;;;;;;;;;;5038216;28;20092;-79
2022/01/23 15:29:32;;;;;;;4.70;1.70;;;;;;;;;;5037081;28;20037;-79
2022/01/23 15:31:59;;;;;;;4.95;2.70;;;;;;;;;;5030519;28;20068;-79
2022/01/23 15:34:25;;;;;;;7.30;2.22;;;;;;;;;;5032809;28;20028;-79
2022/01/23 15:36:53;;;;;;;5.47;2.40;;;;;;;;;;5035933;28;20032;-79
2022/01/23 15:39:19;;;;;;;5.80;2.25;;;;;;;;;;5037201;28;20131;-80
2022/01/23 15:41:45;;;;;;;4.65;2.03;;;;;;;;;;5038783;28;20924;-79
2022/01/23 15:44:11;;;;;;;7.82;2.92;;;;;;;;;;5037998;28;20185;-80
2022/01/23 15:46:37;;;;;;;6.10;2.95;;;;;;;;;;5035646;28;20063;-80
2022/01/23 15:49:04;;;;;;;7.57;3.05;;;;;;;;;;5033623;28;20120;-80
2022/01/23 15:51:30;;;;;;;6.32;2.70;;;;;;;;;;5034617;28;20217;-80
2022/01/23 15:53:56;;;;;;;7.22;3.38;;;;;;;;;;5033127;28;20043;-80
2022/01/23 15:56:22;;;;;;;5.72;2.40;;;;;;;;;;5038411;28;20477;-79
2022/01/23 15:58:48;;;;;;;3.67;1.85;;;;;;;;;;5042823;28;20026;-79
2022/01/23 16:01:14;;;;;;;12.93;3.78;;;;;;;;;;5035577;28;20032;-79
2022/01/23 16:03:40;;;;;;;8.70;2.95;;;;;;;;;;5034881;28;20037;-80
2022/01/23 16:06:06;;;;;;;7.22;2.85;;;;;;;;;;5035726;28;20028;-80
2022/01/23 16:08:32;;;;;;;7.82;3.58;;;;;;;;;;5038159;28;20056;-80
2022/01/23 16:11:00;;;;;;;8.05;3.35;;;;;;;;;;5040596;28;20048;-80
2022/01/23 16:13:27;;;;;;;6.72;2.90;;;;;;;;;;5046244;28;20033;-80
2022/01/23 16:15:53;;;;;;;7.43;2.90;;;;;;;;;;5032702;28;20064;-80
2022/01/23 16:18:19;;;;;;;5.65;2.08;;;;;;;;;;5031912;28;20501;-80
2022/01/23 16:20:45;;;;;;;6.00;3.00;;;;;;;;;;5037781;28;20056;-81
2022/01/23 16:23:11;;;;;;;6.45;3.15;;;;;;;;;;5040337;28;20397;-79
2022/01/23 16:25:37;;;;;;;4.28;1.75;;;;;;;;;;5045099;28;20045;-80
2022/01/23 16:28:03;;;;;;;5.57;2.53;;;;;;;;;;5041011;28;20041;-80
2022/01/23 16:30:42;;;;;;;7.38;2.05;;;;;;;;;;5036952;28;20094;-79
2022/01/23 16:33:08;;;;;;;3.60;1.42;;;;;;;;;;5040394;28;20029;-80
2022/01/23 16:35:34;;;;;;;5.88;2.20;;;;;;;;;;5039767;28;20088;-79
2022/01/23 16:38:00;;;;;;;5.15;2.65;;;;;;;;;;5038605;28;20082;-79
2022/01/23 16:40:26;;;;;;;2.67;1.15;;;;;;;;;;5026644;28;20060;-81
2022/01/23 16:42:52;;;;;;;3.08;1.50;;;;;;;;;;5032636;28;20040;-80
2022/01/23 16:45:18;;;;;;;4.80;2.53;;;;;;;;;;5033205;28;20041;-81
2022/01/23 16:47:46;;;;;;;4.68;1.88;;;;;;;;;;5039748;28;20036;-81
2022/01/23 16:50:12;;;;;;;6.25;2.78;;;;;;;;;;5042554;28;20516;-81
2022/01/23 16:52:38;;;;;;;6.40;2.42;;;;;;;;;;5035798;28;20057;-80
2022/01/23 16:55:05;;;;;;;10.02;4.13;;;;;;;;;;5035747;28;20111;-81
2022/01/23 16:57:31;;;;;;;7.65;3.83;;;;;;;;;;5021756;28;20033;-78
2022/01/23 16:59:57;;;;;;;4.97;2.45;;;;;;;;;;5027776;28;20397;-79
2022/01/23 17:02:23;;;;;;;5.45;3.00;;;;;;;;;;5037672;28;20041;-78
2022/01/23 17:04:49;;;;;;;3.47;2.00;;;;;;;;;;5034073;28;20041;-77
2022/01/23 17:07:15;;;;;;;7.65;2.35;;;;;;;;;;5029343;28;20028;-79
2022/01/23 17:09:41;;;;;;;5.13;1.95;;;;;;;;;;5031106;28;20104;-80
2022/01/23 17:12:07;;;;;;;5.18;2.35;;;;;;;;;;5034011;28;20087;-80
2022/01/23 17:14:34;;;;;;;3.22;1.77;;;;;;;;;;5035012;28;20498;-79
2022/01/23 17:17:00;;;;;;;6.72;1.75;;;;;;;;;;5032893;28;20104;-80
2022/01/23 17:19:26;;;;;;;9.82;2.80;;;;;;;;;;5024951;28;20025;-78
2022/01/23 17:21:52;;;;;;;8.23;4.00;;;;;;;;;;5033024;28;20040;-78
2022/01/23 17:24:18;;;;;;;5.47;2.63;;;;;;;;;;5035760;28;20659;-77
2022/01/23 17:26:44;;;;;;;7.63;2.67;;;;;;;;;;5033887;28;20099;-77
2022/01/23 17:29:10;;;;;;;5.65;2.30;;;;;;;;;;5035787;28;20580;-77
2022/01/23 17:31:36;;;;;;;5.53;2.60;;;;;;;;;;5037961;28;20056;-78
2022/01/23 17:34:02;;;;;;;4.25;2.17;;;;;;;;;;5035952;28;20049;-78
2022/01/23 17:36:28;;;;;;;9.98;3.35;;;;;;;;;;5039053;28;20116;-79
2022/01/23 17:38:54;;;;;;;4.70;2.33;;;;;;;;;;5042839;28;20037;-80
2022/01/23 17:41:20;;;;;;;7.40;2.00;;;;;;;;;;5037978;28;20916;-80
2022/01/23 17:43:47;;;;;;;7.95;2.65;;;;;;;;;;5035657;28;20049;-79
2022/01/23 17:46:20;;;;;;;4.75;3.00;;;;;;;;;;5042564;28;20054;-79
2022/01/23 17:49:02;;;;;;;10.73;2.80;;;;;;;;;;5040373;28;20040;-80
2022/01/23 17:51:28;;;;;;;12.68;4.70;;;;;;;;;;5039847;28;20029;-80
2022/01/23 17:53:55;;;;;;;4.88;1.73;;;;;;;;;;5037398;28;20351;-80
2022/01/23 17:56:21;;;;;;;4.60;2.25;;;;;;;;;;5039673;28;20043;-79